Time;durP1;ratioP1;P1;durP2;ratioP2;P2;SDS_P1;SDS_P2;PMS_P1;PMS_P2;Temp;Humidity;BMP_temperature;BMP_pressure;BME280_temperature;BME280_humidity;BME280_pressure;Samples;Min_cycle;Max_cycle;Signal;HPM_P1;HPM_P2
2022/05/05 00:01:22;;;;;;;8.90;7.20;;;14.40;1.00;;;14.38;60.71;101123.34;4844320;29;20958;-69
2022/05/05 00:03:51;;;;;;;7.30;6.60;;;14.40;1.00;;;14.30;61.27;101122.50;4850414;29;21003;-68
2022/05/05 00:06:20;;;;;;;6.57;5.93;;;14.30;1.00;;;14.25;61.72;101124.22;4841752;29;20435;-68
2022/05/05 00:08:49;;;;;;;7.30;6.60;;;14.20;1.00;;;14.14;62.31;101117.59;4853218;29;20427;-69
2022/05/05 00:14:28;;;;;;;6.53;5.93;;;14.20;1.00;;;14.21;62.92;101118.41;4851893;29;20483;-68
2022/05/05 00:16:59;;;;;;;7.93;7.13;;;14.10;1.00;;;14.05;63.67;101120.78;4846224;29;20464;-67
2022/05/05 00:19:31;;;;;;;7.77;6.90;;;14.00;1.00;;;14.03;64.37;101112.88;4854938;29;20426;-68
2022/05/05 00:22:00;;;;;;;7.23;6.47;;;14.00;1.00;;;14.03;64.71;101115.59;4847407;29;20451;-67
2022/05/05 00:24:29;;;;;;;8.10;7.30;;;14.00;1.00;;;13.94;65.35;101111.47;4847209;29;20529;-67
2022/05/05 00:26:58;;;;;;;9.40;6.27;;;13.90;1.00;;;13.90;65.62;101110.22;4850943;29;20488;-68
2022/05/05 00:29:28;;;;;;;7.27;6.57;;;13.80;1.00;;;13.88;65.76;101104.19;4847087;29;20494;-68
2022/05/05 00:31:57;;;;;;;8.47;7.37;;;13.80;1.00;;;13.84;66.08;101111.13;4849710;29;20452;-68
2022/05/05 00:34:26;;;;;;;9.10;7.23;;;13.80;1.00;;;13.75;66.31;101112.41;4853459;29;20463;-68
2022/05/05 00:36:55;;;;;;;7.83;7.07;;;13.70;1.00;;;13.66;66.65;101111.81;4871802;29;20476;-68
2022/05/05 00:39:24;;;;;;;8.70;7.03;;;13.70;1.00;;;13.68;66.71;101117.88;4850628;29;20410;-68
2022/05/05 00:41:53;;;;;;;7.47;6.77;;;13.60;1.00;;;13.65;66.87;101117.50;4856208;29;20915;-68
2022/05/05 00:44:22;;;;;;;8.90;7.33;;;13.60;1.00;;;13.62;67.02;101120.63;4850984;29;20568;-68
2022/05/05 00:46:53;;;;;;;7.10;6.03;;;13.50;1.00;;;13.51;66.85;101118.59;4853287;29;20559;-69
2022/05/05 00:49:23;;;;;;;10.33;7.50;;;13.50;1.00;;;13.39;66.78;101116.56;4856927;29;20449;-68
2022/05/05 00:51:51;;;;;;;8.70;7.47;;;13.40;1.00;;;13.38;67.18;101117.59;4849596;29;20912;-68
2022/05/05 00:54:20;;;;;;;9.97;8.23;;;13.30;1.00;;;13.42;67.09;101116.13;4850569;29;20551;-67
2022/05/05 00:56:49;;;;;;;9.10;7.93;;;13.30;1.00;;;13.42;67.44;101124.28;4843368;29;20451;-68
2022/05/05 00:59:18;;;;;;;7.50;6.80;;;13.30;1.00;;;13.37;67.29;101125.97;4843973;29;20437;-68
2022/05/05 01:01:47;;;;;;;8.00;6.87;;;13.30;1.00;;;13.26;67.55;101138.34;4852521;29;20424;-68
2022/05/05 01:04:19;;;;;;;9.07;8.27;;;13.20;1.00;;;13.25;67.61;101144.84;4850353;29;21005;-68
2022/05/05 01:06:48;;;;;;;10.97;7.90;;;13.20;1.00;;;13.39;67.46;101140.19;4852736;29;20447;-67
2022/05/05 01:09:17;;;;;;;7.13;6.43;;;13.30;1.00;;;13.41;67.04;101144.34;4843673;29;20540;-68
2022/05/05 01:11:46;;;;;;;9.93;6.73;;;13.30;1.00;;;13.27;67.33;101156.31;4851751;29;20423;-67
2022/05/05 01:14:19;;;;;;;9.80;8.30;;;13.20;1.00;;;13.30;67.06;101153.19;4852119;29;20474;-67
2022/05/05 01:16:48;;;;;;;7.30;6.60;;;13.20;1.00;;;13.27;67.22;101153.59;4855481;29;20445;-67
2022/05/05 01:19:18;;;;;;;6.70;6.00;;;13.20;1.00;;;13.35;66.97;101156.09;4847433;29;20431;-68
2022/05/05 01:21:57;;;;;;;7.07;6.27;;;13.20;1.00;;;13.31;66.72;101160.25;4876116;29;20492;-67
2022/05/05 01:29:56;;;;;;;7.00;5.30;;;13.30;1.00;;;13.35;66.60;101155.25;4848003;29;20836;-69
2022/05/05 01:32:32;;;;;;;6.70;4.97;;;13.30;1.00;;;13.31;66.71;101154.81;4848319;29;20921;-68
2022/05/05 01:35:01;;;;;;;7.63;4.93;;;13.20;1.00;;;13.17;67.29;101147.75;4850433;29;20460;-68
2022/05/05 01:37:32;;;;;;;6.03;4.43;;;13.10;1.00;;;13.13;67.22;101141.09;4848533;29;20966;-67
2022/05/05 01:40:01;;;;;;;6.50;4.33;;;13.10;1.00;;;13.02;67.31;101139.81;4853172;29;20539;-68
2022/05/05 01:42:29;;;;;;;5.97;5.00;;;13.00;1.00;;;13.04;67.29;101142.34;4847295;29;20945;-67
2022/05/05 01:44:58;;;;;;;5.50;4.13;;;12.90;1.00;;;12.85;67.65;101137.78;4854191;29;20440;-68
2022/05/05 01:47:26;;;;;;;11.30;5.03;;;12.80;1.00;;;12.88;67.93;101134.63;4852759;29;20465;-68
2022/05/05 01:49:59;;;;;;;6.57;4.77;;;12.80;1.00;;;12.89;68.04;101149.88;4849205;29;20449;-67
2022/05/05 01:52:29;;;;;;;6.23;4.20;;;12.70;1.00;;;12.84;67.97;101138.81;4856635;29;20440;-68
2022/05/05 01:54:59;;;;;;;4.80;3.83;;;12.70;1.00;;;12.78;68.18;101148.63;4860188;29;20456;-68
2022/05/05 01:57:28;;;;;;;6.27;4.50;;;12.70;1.00;;;12.76;68.26;101144.47;4850000;29;20534;-68
2022/05/05 01:59:56;;;;;;;6.40;4.10;;;12.60;1.00;;;12.77;68.62;101151.56;4850337;29;20444;-68
2022/05/05 02:02:25;;;;;;;4.77;4.37;;;12.60;1.00;;;12.83;68.35;101153.47;4854695;29;20444;-68
2022/05/05 02:04:54;;;;;;;5.13;4.20;;;12.70;1.00;;;12.74;68.99;101157.41;4857334;29;20976;-67
2022/05/05 02:07:23;;;;;;;8.50;5.00;;;12.60;1.00;;;12.63;69.53;101154.28;4859542;29;20465;-68
2022/05/05 02:09:51;;;;;;;5.40;4.13;;;12.50;1.00;;;12.51;70.15;101163.28;4857704;29;20975;-68
2022/05/05 02:12:22;;;;;;;7.63;4.80;;;12.50;1.00;;;12.42;70.64;101162.66;4854032;29;20993;-68
2022/05/05 02:14:51;;;;;;;8.83;5.20;;;12.40;1.00;;;12.39;70.63;101163.03;4861468;29;20444;-68
2022/05/05 02:17:19;;;;;;;5.03;4.53;;;12.30;1.00;;;12.31;71.51;101168.69;4857462;29;20448;-68
2022/05/05 02:19:48;;;;;;;6.27;4.37;;;12.30;1.00;;;12.25;71.72;101172.22;4853714;29;20472;-67
2022/05/05 02:22:18;;;;;;;6.17;4.93;;;12.20;1.00;;;12.22;71.93;101167.22;4852535;29;20448;-67
2022/05/05 02:24:46;;;;;;;7.00;5.80;;;12.20;1.00;;;12.27;71.95;101166.59;4850199;29;20439;-68
2022/05/05 02:27:23;;;;;;;7.30;6.37;;;12.20;1.00;;;12.26;71.77;101175.75;4857474;29;20423;-66
2022/05/05 02:29:52;;;;;;;8.40;5.13;;;12.20;1.00;;;12.25;71.96;101182.25;4843225;29;20535;-67
2022/05/05 02:32:22;;;;;;;17.23;6.07;;;12.20;1.00;;;12.12;73.08;101185.75;4843674;29;20448;-67
2022/05/05 02:34:50;;;;;;;7.33;6.10;;;12.10;1.00;;;12.02;73.50;101190.75;4852870;29;20478;-67
2022/05/05 02:40:07;;;;;;;7.00;5.80;;;12.00;38.90;;;12.01;74.38;101194.47;4855876;29;20951;-67
2022/05/05 02:42:37;;;;;;;11.93;5.43;;;12.00;99.90;;;11.95;74.89;101203.47;4848709;29;20477;-67
2022/05/05 02:45:07;;;;;;;8.53;6.67;;;11.90;99.90;;;12.02;74.43;101198.88;4847497;29;20437;-68
2022/05/05 02:47:35;;;;;;;8.77;5.30;;;11.90;99.90;;;12.01;74.58;101208.03;4854634;29;20459;-68
2022/05/05 02:50:06;;;;;;;11.20;6.13;;;11.90;99.90;;;12.06;74.57;101208.28;4848526;29;20419;-68
2022/05/05 02:52:34;;;;;;;8.37;5.40;;;12.00;99.90;;;11.98;75.30;101212.03;4847539;29;20472;-68
2022/05/05 02:55:03;;;;;;;14.47;6.50;;;11.90;99.90;;;12.04;74.95;101207.66;4842059;29;20453;-68
2022/05/05 02:57:31;;;;;;;8.97;5.67;;;11.90;99.90;;;12.02;75.03;101209.72;4841666;29;20539;-66
2022/05/05 03:00:02;;;;;;;10.63;7.00;;;11.90;99.90;;;12.08;74.92;101207.03;4858765;29;20439;-67
2022/05/05 03:02:31;;;;;;;11.90;6.93;;;12.00;99.90;;;12.06;74.50;101202.84;4843499;29;20424;-67
2022/05/05 03:05:00;;;;;;;10.33;6.57;;;12.00;99.90;;;12.07;74.74;101202.66;4852773;29;20440;-67
2022/05/05 03:07:29;;;;;;;8.07;6.47;;;12.00;99.90;;;12.05;74.56;101209.34;4849016;29;20882;-67
2022/05/05 03:09:57;;;;;;;11.87;7.07;;;12.00;99.90;;;12.04;74.58;101210.38;4841784;29;20469;-67
2022/05/05 03:12:26;;;;;;;9.53;6.33;;;12.00;99.90;;;12.05;74.47;101215.56;4853012;29;20448;-67
2022/05/05 03:14:55;;;;;;;9.30;6.40;;;12.00;99.90;;;12.09;74.54;101226.88;4850947;29;20499;-67
2022/05/05 03:17:25;;;;;;;6.40;5.30;;;12.00;99.90;;;12.08;74.59;101228.75;4857791;29;20495;-67
2022/05/05 03:19:54;;;;;;;7.37;6.07;;;12.00;99.90;;;12.02;74.72;101236.84;4847686;29;20440;-67
2022/05/05 03:22:23;;;;;;;8.60;6.97;;;12.00;99.90;;;12.18;74.96;101244.63;4845745;29;20440;-67
2022/05/05 03:24:52;;;;;;;10.27;7.13;;;12.10;99.90;;;12.10;74.62;101247.53;4859330;29;20452;-67
2022/05/05 03:27:20;;;;;;;7.90;6.13;;;12.00;99.90;;;12.08;74.95;101249.59;4847689;29;20441;-67
2022/05/05 03:29:49;;;;;;;10.00;6.67;;;12.00;99.90;;;12.05;75.20;101245.41;4841504;29;20487;-67
2022/05/05 03:32:18;;;;;;;7.80;6.40;;;12.00;99.90;;;12.13;75.21;101238.97;4844140;29;20446;-67
2022/05/05 03:34:48;;;;;;;7.37;6.57;;;12.00;99.90;;;12.05;75.52;101241.88;4848086;29;20447;-67
2022/05/05 03:37:17;;;;;;;9.23;6.60;;;12.00;99.90;;;12.06;75.68;101249.81;4844192;29;20449;-67
2022/05/05 03:39:46;;;;;;;12.33;6.13;;;12.00;99.90;;;11.93;76.05;101243.50;4841801;29;20440;-67
2022/05/05 03:42:14;;;;;;;7.97;6.97;;;11.90;99.90;;;11.86;76.67;101254.31;4846728;29;20414;-67
2022/05/05 03:44:43;;;;;;;8.30;5.93;;;11.80;99.90;;;11.83;76.72;101253.88;4852468;29;20439;-67
2022/05/05 03:47:12;;;;;;;17.57;7.93;;;11.80;99.90;;;11.94;76.48;101250.59;4841640;29;20501;-67
2022/05/05 03:49:40;;;;;;;9.23;7.03;;;11.80;99.90;;;11.74;76.74;101248.63;4852630;29;20526;-67
2022/05/05 03:52:10;;;;;;;12.30;6.73;;;11.70;99.90;;;11.82;77.20;101254.91;4848082;29;20456;-67
2022/05/05 03:54:41;;;;;;;9.43;7.60;;;11.70;99.90;;;11.85;77.52;101239.09;4852064;29;20472;-68
2022/05/05 03:57:09;;;;;;;8.73;6.40;;;11.70;99.90;;;11.83;77.73;101245.75;4845437;29;20517;-68
2022/05/05 03:59:38;;;;;;;9.00;7.53;;;11.80;1.00;;;11.86;77.56;101242.66;4857081;29;20542;-68
2022/05/05 04:02:07;;;;;;;10.53;8.10;;;11.70;1.00;;;11.79;77.67;101241.75;4845077;29;20444;-66
2022/05/05 04:04:35;;;;;;;10.30;6.60;;;11.70;1.00;;;11.77;77.63;101240.09;4845972;29;20499;-67
2022/05/05 04:07:05;;;;;;;7.57;6.20;;;11.70;99.90;;;11.74;77.50;101242.38;4856551;29;20542;-68
2022/05/05 04:09:35;;;;;;;11.97;6.63;;;11.70;1.00;;;11.69;77.85;101245.66;4849236;29;20757;-68
2022/05/05 04:12:04;;;;;;;9.83;6.90;;;11.60;99.90;;;11.70;77.40;101247.34;4850544;29;20437;-68
2022/05/05 04:14:33;;;;;;;8.70;7.00;;;11.60;99.90;;;11.66;77.65;101245.22;4859298;29;20491;-69
2022/05/05 04:17:02;;;;;;;15.00;6.87;;;11.60;99.90;;;11.71;77.58;101238.13;4850507;29;20548;-68
2022/05/05 04:19:31;;;;;;;13.20;7.83;;;11.60;1.00;;;11.67;77.50;101247.72;4853563;29;20455;-68
2022/05/05 04:21:59;;;;;;;7.87;7.07;;;11.50;99.90;;;11.65;77.94;101244.38;4856869;29;20496;-68
2022/05/05 04:24:28;;;;;;;10.88;7.18;;;11.50;1.00;;;11.60;78.21;101241.44;4854168;29;20467;-68
2022/05/05 04:26:58;;;;;;;8.40;6.27;;;11.50;1.00;;;11.55;78.51;101238.50;4852083;29;20204;-68
2022/05/05 04:29:27;;;;;;;12.53;7.43;;;11.50;1.00;;;11.51;78.46;101247.22;4845222;29;20510;-67
2022/05/05 04:31:56;;;;;;;8.97;6.83;;;11.50;1.00;;;11.50;78.78;101249.09;4850160;29;20452;-67
2022/05/05 04:34:25;;;;;;;10.47;8.43;;;11.40;1.00;;;11.56;78.50;101253.72;4844463;29;20476;-68
2022/05/05 04:36:54;;;;;;;6.10;5.50;;;11.40;1.00;;;11.53;78.44;101248.69;4844784;29;20883;-67
2022/05/05 04:39:22;;;;;;;7.83;7.03;;;11.40;1.00;;;11.48;78.90;101253.88;4846538;29;20524;-67
2022/05/05 04:41:51;;;;;;;9.63;7.50;;;11.40;1.00;;;11.46;79.13;101255.13;4850322;29;21228;-67
2022/05/05 04:44:21;;;;;;;16.10;6.90;;;11.40;1.00;;;11.49;78.40;101271.81;4850806;29;20469;-67
2022/05/05 04:46:50;;;;;;;15.55;7.13;;;11.40;1.00;;;11.52;78.78;101276.00;4851273;29;20535;-67
2022/05/05 04:49:19;;;;;;;9.53;7.40;;;11.40;90.40;;;11.66;78.44;101273.19;4854390;29;20247;-67
2022/05/05 04:51:47;;;;;;;10.23;8.00;;;11.50;95.70;;;11.62;78.26;101280.00;4848496;29;20454;-67
2022/05/05 04:54:16;;;;;;;9.97;7.87;;;11.50;1.00;;;11.65;78.08;101276.91;4848893;29;20471;-66
2022/05/05 04:56:44;;;;;;;8.67;7.37;;;11.60;1.00;;;11.70;77.66;101282.59;4845856;29;20810;-66
2022/05/05 04:59:13;;;;;;;12.10;9.00;;;11.60;1.00;;;11.70;77.97;101288.00;4850147;29;20448;-66
2022/05/05 05:01:43;;;;;;;9.13;8.23;;;11.60;99.90;;;11.75;77.78;101284.72;4855755;29;20452;-67
2022/05/05 05:04:12;;;;;;;17.17;9.07;;;11.60;99.90;;;12.00;77.15;101301.34;4855877;29;20531;-67
2022/05/05 05:06:40;;;;;;;10.47;8.17;;;11.80;99.90;;;11.94;76.36;101291.28;4850523;29;20523;-67
2022/05/05 05:09:09;;;;;;;10.87;7.20;;;11.80;99.90;;;11.97;76.53;101296.28;4849835;29;20433;-67
2022/05/05 05:11:37;;;;;;;9.67;8.10;;;11.90;99.90;;;11.93;76.40;101298.56;4854970;29;20451;-68
2022/05/05 05:14:06;;;;;;;11.70;7.40;;;11.80;99.90;;;11.94;76.25;101299.41;4851306;29;20579;-68
2022/05/05 05:16:36;;;;;;;14.23;10.00;;;11.80;99.90;;;12.08;75.80;101309.28;4854586;29;20429;-68
2022/05/05 05:19:11;;;;;;;11.33;8.67;;;11.90;99.90;;;12.12;75.62;101305.97;4852527;29;20439;-67
2022/05/05 05:21:46;;;;;;;11.57;8.10;;;12.00;99.90;;;12.09;75.88;101306.38;4849834;29;20455;-67
2022/05/05 05:24:15;;;;;;;16.93;7.73;;;12.00;99.90;;;12.30;75.63;101304.56;4849053;29;20496;-67
2022/05/05 05:26:44;;;;;;;9.07;6.50;;;12.00;99.90;;;12.19;75.11;101309.56;4850173;29;20449;-65
2022/05/05 05:29:12;;;;;;;14.33;8.27;;;12.10;99.90;;;12.08;75.45;101309.28;4859278;29;20974;-69
2022/05/05 05:31:41;;;;;;;11.50;7.10;;;12.00;99.90;;;12.10;75.39;101313.47;4849992;29;20456;-68
2022/05/05 05:34:11;;;;;;;9.23;6.50;;;12.00;99.90;;;12.07;75.44;101321.16;4855571;29;20525;-68
2022/05/05 05:36:40;;;;;;;9.10;7.50;;;11.90;99.90;;;12.07;75.14;101326.59;4862675;29;20822;-68
2022/05/05 05:39:09;;;;;;;11.63;9.60;;;12.00;99.90;;;12.05;74.73;101326.78;4847619;29;20815;-69
2022/05/05 05:41:37;;;;;;;10.90;8.63;;;11.90;90.20;;;12.23;74.68;101328.97;4852440;29;20445;-67
2022/05/05 05:44:06;;;;;;;12.03;9.10;;;12.00;96.00;;;12.25;74.19;101329.59;4901783;23;20502;-73
2022/05/05 05:46:35;;;;;;;10.30;9.20;;;12.00;61.00;;;12.52;73.41;101327.81;4941137;28;20445;-72
2022/05/05 05:49:05;;;;;;;14.10;9.23;;;12.20;57.90;;;12.49;73.25;101329.06;4933526;29;21041;-74
2022/05/05 05:51:35;;;;;;;9.40;7.70;;;12.30;20.60;;;12.68;72.68;101326.63;4901070;29;20482;-74
2022/05/05 05:54:04;;;;;;;10.97;8.30;;;12.40;11.40;;;12.72;72.53;101342.28;4909224;29;20465;-74
2022/05/05 05:56:33;;;;;;;14.80;7.37;;;12.40;1.00;;;12.55;72.55;101344.53;4909893;29;20443;-75
2022/05/05 05:59:02;;;;;;;9.43;7.00;;;12.40;1.00;;;12.67;72.39;101352.09;4914651;29;20888;-75
2022/05/05 06:04:17;;;;;;;10.77;6.60;;;12.50;3.10;;;12.83;71.62;101360.69;4919743;29;20448;-74
2022/05/05 06:06:47;;;;;;;10.03;7.30;;;12.60;1.00;;;12.61;72.31;101365.44;4921905;29;20522;-74
2022/05/05 06:09:16;;;;;;;21.90;12.83;;;12.50;1.00;;;12.57;71.89;101364.19;4921693;29;20848;-73
2022/05/05 06:11:45;;;;;;;10.30;7.97;;;12.50;1.00;;;12.44;72.53;101369.53;4926464;29;20481;-73
2022/05/05 06:14:14;;;;;;;67.83;48.97;;;12.40;1.00;;;12.55;72.12;101368.97;4913323;29;20468;-76
2022/05/05 06:16:43;;;;;;;10.50;9.27;;;12.40;1.00;;;12.36;72.52;101367.00;4913849;29;20438;-74
2022/05/05 06:19:12;;;;;;;12.70;11.40;;;12.20;1.00;;;12.45;72.46;101376.66;4908673;29;20468;-73
2022/05/05 06:21:41;;;;;;;12.00;7.27;;;12.30;99.90;;;12.71;71.54;101380.50;4917326;29;20465;-73
2022/05/05 06:24:11;;;;;;;10.40;7.67;;;12.40;99.90;;;12.76;71.79;101375.31;4908177;29;20442;-73
2022/05/05 06:26:40;;;;;;;7.90;6.67;;;12.50;99.90;;;12.97;70.70;101386.03;4897184;29;20446;-74
2022/05/05 06:29:08;;;;;;;9.73;8.40;;;12.70;99.90;;;12.87;71.31;101380.16;4907158;29;20469;-74
2022/05/05 06:31:37;;;;;;;10.83;7.97;;;12.60;99.90;;;12.78;71.39;101378.66;4913088;29;20532;-74
2022/05/05 06:34:06;;;;;;;9.37;6.90;;;12.60;99.90;;;13.10;69.57;101375.16;4909161;29;20443;-74
2022/05/05 06:36:35;;;;;;;7.37;6.17;;;12.80;99.90;;;13.06;69.97;101379.34;4909949;29;20436;-74
2022/05/05 06:39:04;;;;;;;11.03;8.00;;;12.80;99.90;;;13.23;69.36;101385.22;4914560;29;20484;-72
2022/05/05 06:41:34;;;;;;;10.73;9.83;;;13.00;99.90;;;13.19;69.50;101383.97;4904689;29;20826;-73
2022/05/05 06:44:03;;;;;;;11.20;10.10;;;12.90;99.90;;;12.97;70.36;101396.88;4910199;29;20454;-73
2022/05/05 06:46:32;;;;;;;10.93;7.17;;;12.80;99.90;;;13.15;69.71;101394.44;4905918;29;20441;-71
2022/05/05 06:49:01;;;;;;;8.20;6.77;;;12.90;99.90;;;13.32;69.33;101406.56;4903700;29;20433;-74
2022/05/05 06:51:29;;;;;;;7.60;6.87;;;13.10;99.90;;;13.32;69.62;101405.72;4898183;29;20469;-73
2022/05/05 06:53:58;;;;;;;11.43;7.83;;;13.10;99.90;;;13.56;67.88;101407.84;4903546;29;20528;-73
2022/05/05 06:56:29;;;;;;;9.40;7.80;;;13.30;99.90;;;13.64;68.05;101409.53;4914384;29;20452;-73
2022/05/05 06:58:59;;;;;;;18.97;17.13;;;13.30;99.90;;;13.85;67.37;101407.41;4908047;29;20512;-72
2022/05/05 07:07:11;;;;;;;9.43;7.30;;;13.80;99.90;;;14.00;66.54;101420.78;4908390;29;20400;-73
2022/05/05 07:12:28;;;;;;;12.70;10.13;;;13.60;99.90;;;14.24;66.04;101422.81;4911188;29;20507;-73
2022/05/05 07:14:59;;;;;;;15.37;12.33;;;13.80;99.90;;;14.06;66.03;101425.38;4926435;29;20442;-72
2022/05/05 07:17:28;;;;;;;11.43;9.67;;;13.80;99.90;;;14.43;65.30;101425.72;4903899;29;20416;-74
2022/05/05 07:19:57;;;;;;;10.37;9.33;;;14.00;99.90;;;14.69;64.35;101417.47;4908453;29;20409;-73
2022/05/05 07:22:26;;;;;;;12.00;8.17;;;14.20;99.90;;;15.32;62.73;101431.16;4910642;29;20449;-73
2022/05/05 07:24:54;;;;;;;8.17;6.67;;;14.60;99.60;;;15.50;62.28;101428.47;4911190;29;20437;-73
2022/05/05 07:27:24;;;;;;;11.60;9.83;;;14.90;97.30;;;15.70;61.08;101431.94;4913747;29;20430;-71
2022/05/05 07:29:52;;;;;;;11.73;10.03;;;15.30;91.20;;;15.32;62.01;101437.44;4904325;29;20408;-72
2022/05/05 07:32:23;;;;;;;8.50;6.37;;;15.10;90.60;;;15.14;61.48;101446.38;4906521;29;20564;-73
2022/05/05 07:34:51;;;;;;;11.30;8.17;;;15.00;85.30;;;15.37;61.68;101444.94;4907759;29;20548;-73
2022/05/05 07:37:21;;;;;;;9.40;7.77;;;15.00;90.50;;;15.47;61.04;101442.56;4911346;29;20438;-74
2022/05/05 07:39:49;;;;;;;8.20;7.23;;;15.00;86.70;;;15.59;60.74;101446.28;4907098;29;20478;-73
2022/05/05 07:42:18;;;;;;;8.70;6.07;;;15.20;86.40;;;15.76;60.63;101452.88;4906024;29;20492;-73
2022/05/05 07:44:47;;;;;;;11.77;7.97;;;15.40;83.30;;;15.97;60.52;101457.94;4904297;29;20659;-74
2022/05/05 07:47:15;;;;;;;9.60;7.93;;;15.60;84.70;;;16.52;58.16;101452.53;4903840;29;20490;-73
2022/05/05 07:49:46;;;;;;;7.50;6.37;;;16.00;66.90;;;16.33;58.68;101457.16;4912204;29;20437;-72
2022/05/05 07:52:15;;;;;;;14.53;7.70;;;16.10;59.40;;;16.48;58.41;101460.34;4900084;29;20479;-72
2022/05/05 07:54:44;;;;;;;8.80;6.93;;;16.10;59.50;;;15.89;59.60;101460.09;4898845;29;20980;-72
2022/05/05 07:57:17;;;;;;;7.83;5.97;;;16.00;56.50;;;16.05;59.06;101454.91;4901300;29;20445;-73
2022/05/05 07:59:46;;;;;;;9.87;5.90;;;16.10;54.60;;;15.94;59.91;101455.66;4919867;29;20433;-73
2022/05/05 08:02:21;;;;;;;6.17;5.57;;;16.00;57.20;;;16.65;57.95;101451.59;4905127;29;20404;-71
2022/05/05 08:04:52;;;;;;;8.93;7.40;;;16.40;54.60;;;16.87;57.00;101459.06;4902639;29;20446;-73
2022/05/05 08:07:21;;;;;;;9.03;6.60;;;16.50;50.60;;;16.84;57.14;101459.53;4913168;29;20455;-73
2022/05/05 08:09:50;;;;;;;8.70;6.27;;;16.50;48.10;;;16.74;57.64;101459.25;4906208;29;20437;-73
2022/05/05 08:12:29;;;;;;;9.23;6.70;;;16.30;49.20;;;16.85;57.11;101454.88;4909276;29;20832;-72
2022/05/05 08:15:01;;;;;;;8.40;5.97;;;16.60;47.70;;;16.65;57.92;101459.78;4922898;29;20504;-74
2022/05/05 08:17:31;;;;;;;9.33;7.00;;;16.40;47.70;;;16.60;58.06;101459.63;4912243;29;21053;-74
2022/05/05 08:20:02;;;;;;;6.73;6.03;;;16.40;48.90;;;16.26;58.79;101470.06;4912350;29;20427;-75
2022/05/05 08:22:31;;;;;;;8.73;7.83;;;16.30;48.70;;;15.70;59.68;101466.56;4902203;29;20404;-75
2022/05/05 08:30:32;;;;;;;8.37;7.47;;;16.00;54.20;;;16.43;57.60;101468.38;4904530;29;20476;-77
2022/05/05 08:33:01;;;;;;;7.40;6.63;;;16.10;49.90;;;15.99;58.56;101472.19;4908937;29;20451;-74
2022/05/05 08:35:32;;;;;;;8.00;6.63;;;16.10;47.20;;;15.59;59.65;101476.28;4908481;29;20522;-75
2022/05/05 08:38:00;;;;;;;8.67;7.10;;;15.70;49.90;;;15.60;59.99;101480.69;4904775;29;20461;-77
2022/05/05 08:40:29;;;;;;;11.13;7.57;;;15.60;55.10;;;15.47;59.71;101478.03;4904044;29;20445;-75
2022/05/05 08:42:58;;;;;;;10.33;7.13;;;15.60;52.60;;;15.61;59.70;101482.38;4913602;29;20843;-77
2022/05/05 08:45:34;;;;;;;9.20;6.77;;;15.50;55.70;;;15.89;59.08;101482.78;4929117;29;20449;-74
2022/05/05 08:48:08;;;;;;;8.23;6.07;;;15.70;54.40;;;15.90;58.57;101479.00;4904691;29;20533;-74
2022/05/05 08:50:41;;;;;;;6.50;5.87;;;15.70;52.50;;;16.19;58.99;101482.09;4927304;29;20495;-75
2022/05/05 08:53:14;;;;;;;11.20;6.93;;;15.90;56.40;;;16.16;57.94;101468.91;4919331;29;20458;-75
2022/05/05 08:55:45;;;;;;;6.93;6.23;;;16.00;48.20;;;16.13;57.77;101472.06;4912999;29;20515;-74
2022/05/05 08:58:14;;;;;;;11.57;6.10;;;15.90;46.10;;;16.15;58.18;101480.88;4914530;29;20786;-75
2022/05/05 09:00:44;;;;;;;12.50;5.50;;;16.00;47.90;;;16.09;57.84;101477.97;4914123;29;20535;-74
2022/05/05 09:03:12;;;;;;;8.83;6.13;;;16.00;45.70;;;16.13;58.08;101477.53;4917539;29;20404;-74
2022/05/05 09:05:51;;;;;;;6.27;5.67;;;16.00;46.50;;;16.53;57.06;101470.59;4928943;29;20548;-75
2022/05/05 09:08:35;;;;;;;7.10;6.40;;;16.20;44.90;;;16.54;56.79;101480.47;4921079;29;20445;-75
2022/05/05 09:11:06;;;;;;;9.93;6.27;;;16.40;41.40;;;16.32;56.93;101481.94;4920186;29;20472;-78
2022/05/05 09:13:38;;;;;;;6.37;5.17;;;16.30;38.30;;;16.35;56.28;101492.44;4916577;29;20469;-77
2022/05/05 09:16:08;;;;;;;6.80;5.43;;;16.30;35.90;;;16.33;56.09;101484.47;4913342;29;20477;-76
2022/05/05 09:18:38;;;;;;;5.80;5.17;;;16.20;34.50;;;16.17;56.32;101486.97;4912466;29;20454;-77
2022/05/05 09:21:08;;;;;;;11.70;5.63;;;16.10;35.00;;;16.19;57.00;101493.00;4903843;29;20446;-76
2022/05/05 09:24:34;;;;;;;11.17;9.07;;;16.10;37.30;;;16.50;56.14;101493.75;4900828;29;20829;-75
2022/05/05 09:26:31;;;;;;;7.13;6.43;;;16.20;36.00;;;16.16;55.82;101491.59;4912148;29;20445;-76
2022/05/05 09:29:18;;;;;;;15.70;13.93;;;16.20;31.00;;;16.39;54.67;101489.03;4909760;29;20445;-76
2022/05/05 09:31:48;;;;;;;10.87;9.90;;;16.20;28.90;;;16.72;54.44;101485.97;4905904;29;20458;-76
2022/05/05 09:34:20;;;;;;;9.87;8.97;;;16.40;29.00;;;16.88;53.58;101493.53;4917224;29;20433;-78
2022/05/05 09:36:51;;;;;;;11.07;7.60;;;16.50;26.70;;;16.89;52.61;101489.72;4913831;29;20441;-76
2022/05/05 09:39:20;;;;;;;7.47;5.37;;;16.80;23.30;;;17.18;52.44;101499.06;4908424;29;20459;-75
2022/05/05 09:41:51;;;;;;;6.03;5.10;;;16.90;23.10;;;17.12;52.27;101496.41;4916286;29;20465;-75
2022/05/05 09:44:21;;;;;;;12.07;10.43;;;17.10;21.50;;;17.28;52.22;101499.31;4908385;29;20466;-75
2022/05/05 09:46:50;;;;;;;5.50;5.00;;;17.10;20.90;;;17.20;51.94;101512.47;4908217;29;20462;-74
2022/05/05 09:49:21;;;;;;;13.13;5.90;;;17.10;19.50;;;17.19;52.31;101510.81;4915622;29;20480;-75
2022/05/05 09:57:42;;;;;;;6.53;5.00;;;17.40;17.50;;;18.48;48.10;101513.63;4903952;29;20421;-75
2022/05/05 10:00:42;;;;;;;13.27;11.87;;;18.00;14.70;;;17.94;49.61;101513.94;4906573;29;20460;-75
2022/05/05 10:06:04;;;;;;;11.87;10.17;;;17.90;13.40;;;18.46;49.37;101513.00;4911331;29;20512;-75
2022/05/05 10:08:45;;;;;;;14.27;12.83;;;18.20;13.80;;;18.90;47.91;101519.78;4926183;29;20436;-76
2022/05/05 10:11:19;;;;;;;5.43;4.93;;;18.50;12.40;;;18.24;48.67;101510.03;4898781;29;20482;-75
2022/05/05 10:13:50;;;;;;;6.27;5.43;;;18.20;10.80;;;18.22;48.77;101512.19;4911039;29;20475;-76
2022/05/05 10:16:21;;;;;;;7.07;5.20;;;18.00;11.20;;;18.32;48.18;101511.59;4913704;29;20442;-78
2022/05/05 10:18:50;;;;;;;6.10;5.50;;;18.20;10.40;;;17.80;49.15;101516.91;4909609;29;20432;-77
2022/05/05 10:21:43;;;;;;;7.67;6.53;;;18.00;10.20;;;17.70;49.84;101508.41;4910840;29;20444;-76
2022/05/05 10:24:23;;;;;;;6.43;4.60;;;17.60;11.30;;;18.09;48.79;101509.69;4908327;29;20436;-76
2022/05/05 10:26:54;;;;;;;6.93;5.83;;;17.80;11.40;;;18.19;48.61;101507.19;4909233;29;20428;-76
2022/05/05 10:29:38;;;;;;;6.73;5.30;;;18.00;10.70;;;18.92;47.60;101512.16;4906235;29;20457;-75
2022/05/05 10:32:10;;;;;;;8.10;4.77;;;18.40;10.60;;;18.59;49.01;101518.25;4907940;29;20452;-77
2022/05/05 10:34:40;;;;;;;8.07;5.50;;;18.40;11.10;;;17.44;49.67;101514.25;4904439;29;20837;-75
2022/05/05 10:37:13;;;;;;;9.30;5.40;;;17.70;9.50;;;17.44;50.10;101513.41;4900191;29;20409;-76
2022/05/05 10:39:50;;;;;;;5.80;5.30;;;17.50;10.50;;;17.97;49.30;101517.03;4911755;29;20508;-74
2022/05/05 10:42:24;;;;;;;7.90;5.90;;;17.60;10.90;;;18.21;47.65;101528.84;4904794;29;20429;-76
2022/05/05 10:45:16;;;;;;;6.60;5.67;;;17.90;8.70;;;18.24;47.37;101514.69;4913706;29;20501;-76
2022/05/05 10:48:30;;;;;;;6.87;5.23;;;18.00;8.00;;;18.99;46.63;101518.31;4909036;29;20429;-76
2022/05/05 10:51:07;;;;;;;5.77;4.37;;;18.40;8.00;;;19.45;45.20;101517.34;4911501;29;20474;-78
2022/05/05 10:53:42;;;;;;;6.37;5.20;;;18.90;6.70;;;19.45;44.72;101517.34;4914351;29;20509;-75
2022/05/05 10:56:33;;;;;;;5.50;4.90;;;19.20;5.30;;;18.91;46.17;101520.59;4903802;29;20790;-75
2022/05/05 10:59:07;;;;;;;7.63;4.70;;;18.90;5.00;;;18.52;46.96;101512.06;4904891;29;20552;-76
2022/05/05 11:02:04;;;;;;;6.63;4.47;;;18.50;5.50;;;18.80;46.39;101513.22;4912248;29;20947;-76
2022/05/05 11:04:33;;;;;;;6.57;4.90;;;18.60;5.40;;;18.58;46.95;101519.34;4907732;29;20970;-76